Time;durP1;ratioP1;P1;durP2;ratioP2;P2;SDS_P1;SDS_P2;PMS_P1;PMS_P2;Temp;Humidity;BMP_temperature;BMP_pressure;BME280_temperature;BME280_humidity;BME280_pressure;Samples;Min_cycle;Max_cycle;Signal;HPM_P1;HPM_P2
2021/11/05 00:01:38;;;;;;;46.33;32.25;;;5.80;99.90;;;;;;5005061;28;20639;-72
2021/11/05 00:04:03;;;;;;;45.28;31.73;;;5.80;99.90;;;;;;5007687;28;20034;-73
2021/11/05 00:06:29;;;;;;;45.80;32.05;;;5.80;99.90;;;;;;5011759;28;20021;-73
2021/11/05 00:08:55;;;;;;;40.80;31.15;;;5.90;99.90;;;;;;5002651;28;20026;-73
2021/11/05 00:11:20;;;;;;;46.17;32.42;;;5.80;99.90;;;;;;5009499;28;20097;-73
2021/11/05 00:13:45;;;;;;;46.47;33.75;;;5.80;99.90;;;;;;5008784;28;20049;-73
2021/11/05 00:16:11;;;;;;;46.35;32.05;;;5.90;99.90;;;;;;5005262;28;20080;-72
2021/11/05 00:18:36;;;;;;;45.00;33.05;;;5.80;99.90;;;;;;5007425;28;20029;-73
2021/11/05 00:21:02;;;;;;;50.30;35.17;;;5.90;99.90;;;;;;5006757;28;20384;-74
2021/11/05 00:23:28;;;;;;;46.90;32.65;;;5.90;99.90;;;;;;5003137;28;20396;-73
2021/11/05 00:25:53;;;;;;;46.58;33.20;;;5.90;99.90;;;;;;5005590;28;20476;-73
2021/11/05 00:28:19;;;;;;;54.40;36.15;;;6.00;99.90;;;;;;5006651;28;20041;-73
2021/11/05 00:30:45;;;;;;;50.67;34.20;;;5.90;99.90;;;;;;5006708;28;20049;-73
2021/11/05 00:33:11;;;;;;;46.67;32.38;;;5.90;99.90;;;;;;5006697;28;20495;-73
2021/11/05 00:35:36;;;;;;;68.85;39.58;;;6.00;99.90;;;;;;5000197;28;20061;-73
2021/11/05 00:38:02;;;;;;;48.70;33.28;;;5.90;99.90;;;;;;5007402;28;20038;-73
2021/11/05 00:40:29;;;;;;;47.47;31.88;;;6.00;99.90;;;;;;5005161;28;20163;-73
2021/11/05 00:42:55;;;;;;;54.70;35.25;;;6.00;99.90;;;;;;5008102;28;20033;-72
2021/11/05 00:45:21;;;;;;;52.35;33.75;;;6.00;99.90;;;;;;5004811;28;20018;-73
2021/11/05 00:47:48;;;;;;;49.13;33.67;;;6.00;99.90;;;;;;5006160;28;20069;-73
2021/11/05 00:50:13;;;;;;;49.08;33.75;;;6.00;99.90;;;;;;5009758;28;20480;-73
2021/11/05 00:52:39;;;;;;;63.35;37.28;;;6.00;99.90;;;;;;5001413;28;20109;-74
2021/11/05 00:55:06;;;;;;;48.15;34.10;;;6.00;99.90;;;;;;5009445;28;20026;-74
2021/11/05 00:57:32;;;;;;;52.92;35.53;;;6.00;99.90;;;;;;5002810;28;20394;-73
2021/11/05 00:59:58;;;;;;;50.80;34.28;;;6.10;99.90;;;;;;5009592;28;20540;-74
2021/11/05 01:02:23;;;;;;;54.60;36.00;;;6.00;99.90;;;;;;5003729;28;20026;-75
2021/11/05 01:04:49;;;;;;;60.22;36.72;;;6.00;99.90;;;;;;5008329;28;20067;-74
2021/11/05 01:07:14;;;;;;;56.78;34.88;;;6.00;99.90;;;;;;5003236;28;20528;-75
2021/11/05 01:09:40;;;;;;;77.82;40.95;;;5.90;99.90;;;;;;5010992;28;20021;-75
2021/11/05 01:12:06;;;;;;;69.85;40.15;;;5.90;99.90;;;;;;5002438;28;20026;-73
2021/11/05 01:14:32;;;;;;;46.70;33.42;;;5.90;99.90;;;;;;5005247;28;20038;-73
2021/11/05 01:16:58;;;;;;;50.67;35.80;;;5.90;99.90;;;;;;5006029;28;20026;-74
2021/11/05 01:19:25;;;;;;;52.72;35.30;;;5.90;99.90;;;;;;5003190;28;20027;-74
2021/11/05 01:21:50;;;;;;;56.15;34.97;;;5.80;99.90;;;;;;5005900;28;20025;-74
2021/11/05 01:24:16;;;;;;;54.53;35.67;;;5.90;99.90;;;;;;5010021;28;20026;-74
2021/11/05 01:26:41;;;;;;;56.08;36.05;;;5.90;99.90;;;;;;5002308;28;20031;-73
2021/11/05 01:29:07;;;;;;;57.40;37.47;;;5.90;99.90;;;;;;5008851;28;20025;-74
2021/11/05 01:31:32;;;;;;;55.17;36.92;;;6.00;99.90;;;;;;5000767;28;20027;-74
2021/11/05 01:33:58;;;;;;;63.53;39.08;;;5.90;99.90;;;;;;5001798;28;20026;-74
2021/11/05 01:36:24;;;;;;;55.72;36.63;;;5.80;99.90;;;;;;4997791;28;20018;-74
2021/11/05 01:38:50;;;;;;;59.58;38.25;;;5.90;99.90;;;;;;5003755;28;20113;-75
2021/11/05 01:41:15;;;;;;;68.47;40.55;;;5.90;99.90;;;;;;5008429;28;20076;-74
2021/11/05 01:43:41;;;;;;;58.53;38.10;;;5.90;99.90;;;;;;5005801;28;20041;-74
2021/11/05 01:46:09;;;;;;;55.85;38.00;;;5.90;99.90;;;;;;5004008;28;20431;-74
2021/11/05 01:48:36;;;;;;;59.35;39.00;;;5.80;99.90;;;;;;5002554;28;20079;-74
2021/11/05 01:51:02;;;;;;;54.80;36.63;;;5.90;99.90;;;;;;5004939;28;20026;-75
2021/11/05 01:53:27;;;;;;;67.25;40.17;;;5.90;99.90;;;;;;5009745;28;20065;-74
2021/11/05 01:55:53;;;;;;;66.32;39.72;;;5.90;99.90;;;;;;4984603;28;20026;-73
2021/11/05 01:58:20;;;;;;;58.22;36.70;;;5.80;99.90;;;;;;5006619;28;20031;-74
2021/11/05 02:00:47;;;;;;;65.53;40.70;;;5.80;99.90;;;;;;5004702;28;20025;-75
2021/11/05 02:03:14;;;;;;;61.47;39.92;;;5.80;99.90;;;;;;4999258;28;20451;-74
2021/11/05 02:05:40;;;;;;;77.78;43.63;;;5.90;99.90;;;;;;5000857;28;20046;-74
2021/11/05 02:08:07;;;;;;;65.35;40.80;;;5.80;99.90;;;;;;5005510;28;20087;-75
2021/11/05 02:10:32;;;;;;;78.40;43.45;;;5.80;99.90;;;;;;4992101;28;20023;-76
2021/11/05 02:12:58;;;;;;;60.50;38.15;;;5.80;99.90;;;;;;4993464;28;20036;-75
2021/11/05 02:15:25;;;;;;;70.57;42.92;;;6.00;99.90;;;;;;4993393;28;20638;-75
2021/11/05 02:17:50;;;;;;;72.03;41.20;;;5.90;99.90;;;;;;5005121;28;20074;-75
2021/11/05 02:20:19;;;;;;;66.15;41.08;;;5.90;99.90;;;;;;4993298;28;20116;-75
2021/11/05 02:22:46;;;;;;;69.15;40.20;;;5.90;99.90;;;;;;4993214;28;20026;-75
2021/11/05 02:25:12;;;;;;;72.97;42.13;;;5.90;99.90;;;;;;4993248;28;20038;-75
2021/11/05 02:27:38;;;;;;;73.80;41.95;;;5.90;99.90;;;;;;4993014;28;20117;-74
2021/11/05 02:30:07;;;;;;;83.43;44.38;;;5.90;99.90;;;;;;5005797;28;20502;-74
2021/11/05 02:32:34;;;;;;;64.85;40.65;;;5.80;99.90;;;;;;4999397;28;20202;-74
2021/11/05 02:34:59;;;;;;;62.50;39.83;;;5.80;99.90;;;;;;5002589;28;20451;-74
2021/11/05 02:37:26;;;;;;;71.22;41.92;;;5.80;99.90;;;;;;4992965;28;20109;-74
2021/11/05 02:39:52;;;;;;;66.38;39.85;;;5.90;99.90;;;;;;4991651;28;20034;-74
2021/11/05 02:42:18;;;;;;;64.53;39.83;;;5.80;99.90;;;;;;4992733;28;20472;-75
2021/11/05 02:44:44;;;;;;;54.15;37.05;;;5.90;99.90;;;;;;5007006;28;20048;-75
2021/11/05 02:47:24;;;;;;;52.83;35.85;;;6.10;99.90;;;;;;5003770;28;20023;-74
2021/11/05 02:49:50;;;;;;;62.85;39.08;;;5.90;99.90;;;;;;5005769;28;20030;-75
2021/11/05 02:52:16;;;;;;;59.28;37.97;;;5.80;99.90;;;;;;4981819;28;20102;-75
2021/11/05 02:54:43;;;;;;;52.83;35.78;;;5.80;99.90;;;;;;5003696;28;20117;-75
2021/11/05 02:57:09;;;;;;;49.08;34.17;;;5.70;99.90;;;;;;5003914;28;20424;-75
2021/11/05 02:59:35;;;;;;;58.38;37.55;;;5.70;99.90;;;;;;4997544;28;20036;-75
2021/11/05 03:02:01;;;;;;;62.33;38.13;;;5.80;99.90;;;;;;5001096;28;20092;-75
2021/11/05 03:04:27;;;;;;;56.97;38.42;;;5.80;99.90;;;;;;5004907;28;20477;-74
2021/11/05 03:07:02;;;;;;;52.47;35.75;;;5.80;99.90;;;;;;4993804;28;20030;-74
2021/11/05 03:09:33;;;;;;;55.90;38.05;;;5.90;99.90;;;;;;5005584;28;20033;-74
2021/11/05 03:11:59;;;;;;;48.60;35.25;;;5.90;99.90;;;;;;4992416;28;20022;-74
2021/11/05 03:14:25;;;;;;;56.53;36.03;;;5.80;99.90;;;;;;4986316;28;20076;-74
2021/11/05 03:16:52;;;;;;;49.00;35.03;;;5.90;99.90;;;;;;4998846;28;20026;-74
2021/11/05 03:19:17;;;;;;;45.90;33.78;;;5.80;99.90;;;;;;4971737;28;20401;-74
2021/11/05 03:21:43;;;;;;;55.42;35.63;;;5.80;99.90;;;;;;4998561;28;20030;-74
2021/11/05 03:24:09;;;;;;;51.65;34.90;;;5.80;99.90;;;;;;4985621;28;20052;-74
2021/11/05 03:26:34;;;;;;;53.60;36.03;;;5.80;99.90;;;;;;4999206;28;20026;-74
2021/11/05 03:29:00;;;;;;;47.42;33.42;;;5.80;99.90;;;;;;5011659;28;20028;-75
2021/11/05 03:31:26;;;;;;;58.05;36.17;;;5.80;99.90;;;;;;4999107;28;20033;-75
2021/11/05 03:33:52;;;;;;;44.13;31.75;;;5.80;99.90;;;;;;5004951;28;20031;-75
2021/11/05 03:36:17;;;;;;;47.97;31.58;;;5.80;99.90;;;;;;5013489;28;20058;-75
2021/11/05 03:38:43;;;;;;;48.60;33.40;;;5.80;99.90;;;;;;5015846;28;20507;-74
2021/11/05 03:41:09;;;;;;;44.60;32.08;;;5.80;99.90;;;;;;5003234;28;20039;-74
2021/11/05 03:43:35;;;;;;;42.13;29.52;;;5.80;99.90;;;;;;5004476;28;20108;-74
2021/11/05 03:46:01;;;;;;;49.20;31.80;;;5.80;99.90;;;;;;5002436;28;20161;-75
2021/11/05 03:48:26;;;;;;;40.78;30.20;;;5.80;99.90;;;;;;4982986;28;20661;-75
2021/11/05 03:50:52;;;;;;;46.58;31.42;;;5.80;99.90;;;;;;4995796;28;20034;-73
2021/11/05 03:53:18;;;;;;;44.20;30.17;;;5.80;99.90;;;;;;4996190;28;20050;-72
2021/11/05 03:55:43;;;;;;;40.38;28.80;;;5.70;99.90;;;;;;4994839;28;20022;-74
2021/11/05 03:58:09;;;;;;;48.58;32.05;;;5.80;99.90;;;;;;4995918;28;20027;-74
2021/11/05 04:00:34;;;;;;;46.67;31.83;;;5.80;99.90;;;;;;4994411;28;20558;-74
2021/11/05 04:03:00;;;;;;;35.63;27.30;;;5.80;99.90;;;;;;4995906;28;20029;-74
2021/11/05 04:05:25;;;;;;;37.88;28.33;;;5.70;99.90;;;;;;4995856;28;20488;-74
2021/11/05 04:07:51;;;;;;;40.85;29.23;;;5.80;99.90;;;;;;5001042;28;20061;-74
2021/11/05 04:10:17;;;;;;;44.72;30.85;;;5.80;99.90;;;;;;5003437;28;20057;-74
2021/11/05 04:12:42;;;;;;;43.88;30.15;;;5.70;99.90;;;;;;5008599;28;20093;-73
2021/11/05 04:15:09;;;;;;;42.53;30.23;;;5.80;99.90;;;;;;5007257;28;20485;-74
2021/11/05 04:17:35;;;;;;;39.40;28.58;;;5.80;99.90;;;;;;5002100;28;20029;-75
2021/11/05 04:20:01;;;;;;;41.45;28.77;;;5.80;99.90;;;;;;5003449;28;20386;-73
2021/11/05 04:22:27;;;;;;;55.15;32.72;;;5.80;99.90;;;;;;5008759;28;20037;-74
2021/11/05 04:24:53;;;;;;;43.42;29.83;;;5.80;99.90;;;;;;4995682;28;20041;-74
2021/11/05 04:27:18;;;;;;;40.95;30.02;;;5.80;99.90;;;;;;5008590;28;20022;-74
2021/11/05 04:29:44;;;;;;;40.53;28.70;;;5.80;99.90;;;;;;4995344;28;20428;-74
2021/11/05 04:32:09;;;;;;;39.17;28.17;;;5.80;99.90;;;;;;5008453;28;20030;-74
2021/11/05 04:34:35;;;;;;;47.80;31.83;;;5.80;99.90;;;;;;4989661;28;20065;-74
2021/11/05 04:37:00;;;;;;;41.22;29.00;;;5.80;99.90;;;;;;4988044;28;20037;-74
2021/11/05 04:39:26;;;;;;;45.20;31.75;;;5.80;99.90;;;;;;5001389;28;20053;-74
2021/11/05 04:41:52;;;;;;;45.75;30.35;;;5.80;99.90;;;;;;4995050;28;20464;-74
2021/11/05 04:44:18;;;;;;;38.95;29.17;;;5.80;99.90;;;;;;5007234;28;20057;-74
2021/11/05 04:46:44;;;;;;;55.13;33.72;;;5.80;99.90;;;;;;5000057;28;20420;-74
2021/11/05 04:49:09;;;;;;;43.75;30.13;;;5.80;99.90;;;;;;5001453;28;20031;-75
2021/11/05 04:51:35;;;;;;;38.63;27.35;;;5.80;99.90;;;;;;4981825;28;20080;-74
2021/11/05 04:54:00;;;;;;;36.35;26.98;;;5.70;99.90;;;;;;5007216;28;20577;-74
2021/11/05 04:56:26;;;;;;;40.50;28.35;;;5.70;99.90;;;;;;4996139;28;20089;-75
2021/11/05 04:58:52;;;;;;;44.28;29.40;;;5.70;99.90;;;;;;5005424;28;20064;-74
2021/11/05 05:01:18;;;;;;;42.92;30.40;;;5.80;99.90;;;;;;4994665;28;20065;-74
2021/11/05 05:03:43;;;;;;;51.53;32.20;;;5.80;99.90;;;;;;4994793;28;20025;-74
2021/11/05 05:06:09;;;;;;;41.25;29.08;;;5.90;99.90;;;;;;4993635;28;20030;-75
2021/11/05 05:08:34;;;;;;;42.65;29.98;;;5.90;99.90;;;;;;4983392;28;20053;-75
2021/11/05 05:11:00;;;;;;;49.47;30.83;;;5.80;99.90;;;;;;5010726;28;20030;-75
2021/11/05 05:13:26;;;;;;;48.10;30.38;;;5.80;99.90;;;;;;5001961;28;20026;-75
2021/11/05 05:15:51;;;;;;;41.97;28.98;;;5.80;99.90;;;;;;4981450;28;20133;-74
2021/11/05 05:18:17;;;;;;;44.03;30.75;;;5.80;99.90;;;;;;5005690;28;20148;-74
2021/11/05 05:20:43;;;;;;;45.33;29.67;;;5.80;99.90;;;;;;4999598;28;20116;-74
2021/11/05 05:23:10;;;;;;;42.85;30.10;;;5.80;99.90;;;;;;5003141;28;20030;-73
2021/11/05 05:25:36;;;;;;;46.13;30.70;;;5.80;99.90;;;;;;4994373;28;20105;-74
2021/11/05 05:28:01;;;;;;;42.00;28.77;;;5.80;99.90;;;;;;4983512;28;20081;-74
2021/11/05 05:30:27;;;;;;;37.22;26.73;;;5.80;99.90;;;;;;4996065;28;20022;-74
2021/11/05 05:32:52;;;;;;;56.17;32.38;;;5.80;99.90;;;;;;5003020;28;20027;-74
2021/11/05 05:35:19;;;;;;;53.78;35.28;;;5.80;99.90;;;;;;5006344;28;20101;-74
2021/11/05 05:37:46;;;;;;;117.10;98.13;;;5.80;99.90;;;;;;4994568;28;20131;-75
2021/11/05 05:40:12;;;;;;;113.90;88.72;;;5.90;99.90;;;;;;4996303;28;20026;-73
2021/11/05 05:42:38;;;;;;;122.03;95.15;;;5.90;99.90;;;;;;4996753;28;20424;-74
2021/11/05 05:45:05;;;;;;;61.13;44.97;;;5.90;99.90;;;;;;4997793;28;20060;-74
2021/11/05 05:47:32;;;;;;;41.67;32.20;;;5.90;99.90;;;;;;5001627;28;20362;-73
2021/11/05 05:49:58;;;;;;;44.03;31.02;;;5.90;99.90;;;;;;5007113;28;20022;-73
2021/11/05 05:52:24;;;;;;;42.95;30.85;;;6.00;99.90;;;;;;5005639;28;20750;-74
2021/11/05 05:54:49;;;;;;;58.08;34.45;;;5.90;99.90;;;;;;4998830;28;20034;-74
2021/11/05 05:57:15;;;;;;;45.22;31.15;;;5.80;99.90;;;;;;5001739;28;20030;-74
2021/11/05 05:59:41;;;;;;;42.38;30.63;;;5.90;99.90;;;;;;5004737;28;20050;-74
2021/11/05 06:02:07;;;;;;;37.85;30.17;;;5.90;99.90;;;;;;4993464;28;20074;-74
2021/11/05 06:04:33;;;;;;;51.83;33.08;;;5.90;99.90;;;;;;4993365;28;20029;-74
2021/11/05 06:06:58;;;;;;;57.33;38.25;;;5.90;99.90;;;;;;4993538;28;20023;-73
2021/11/05 06:09:24;;;;;;;53.42;36.95;;;5.90;99.90;;;;;;4998239;28;20064;-75
2021/11/05 06:11:49;;;;;;;54.78;42.97;;;5.90;99.90;;;;;;5000247;28;20048;-75
2021/11/05 06:14:15;;;;;;;47.85;37.90;;;5.90;99.90;;;;;;5006722;28;20477;-74
2021/11/05 06:16:41;;;;;;;44.40;35.50;;;6.00;99.90;;;;;;4993485;28;20026;-74
2021/11/05 06:19:07;;;;;;;43.92;35.10;;;6.00;99.90;;;;;;5011219;28;20034;-75
2021/11/05 06:21:33;;;;;;;48.92;43.80;;;6.00;99.90;;;;;;5001493;28;20555;-74
2021/11/05 06:23:59;;;;;;;44.83;34.33;;;5.90;99.90;;;;;;5006599;28;20018;-74
2021/11/05 06:26:25;;;;;;;49.25;33.67;;;5.90;99.90;;;;;;5004562;28;20484;-75
2021/11/05 06:28:51;;;;;;;49.50;34.95;;;5.90;99.90;;;;;;4993554;28;20046;-74
2021/11/05 06:31:17;;;;;;;40.60;31.65;;;6.00;99.90;;;;;;4993037;28;20370;-74
2021/11/05 06:33:43;;;;;;;58.92;42.50;;;6.00;99.90;;;;;;4997927;28;20400;-74
2021/11/05 06:36:08;;;;;;;49.70;38.72;;;5.90;99.90;;;;;;4993443;28;20064;-75
2021/11/05 06:38:34;;;;;;;52.60;38.33;;;6.00;99.90;;;;;;4993010;28;20030;-75
2021/11/05 06:40:59;;;;;;;45.22;36.05;;;6.00;99.90;;;;;;4992995;28;20031;-74
2021/11/05 06:43:25;;;;;;;53.20;37.50;;;6.00;99.90;;;;;;4991590;28;20027;-74
2021/11/05 06:45:51;;;;;;;42.47;33.53;;;6.00;99.90;;;;;;4992872;28;20034;-75
2021/11/05 06:48:17;;;;;;;47.47;36.50;;;6.00;99.90;;;;;;5010268;28;20026;-75
2021/11/05 06:50:43;;;;;;;62.30;44.10;;;6.00;99.90;;;;;;4999189;28;20109;-75
2021/11/05 06:53:10;;;;;;;62.15;44.58;;;6.10;99.90;;;;;;4999120;28;20022;-75
2021/11/05 06:55:36;;;;;;;63.20;45.53;;;6.10;99.90;;;;;;5001036;28;20470;-75
2021/11/05 06:58:03;;;;;;;51.47;38.25;;;6.00;99.90;;;;;;5005912;28;20400;-75
2021/11/05 07:00:28;;;;;;;65.70;40.03;;;6.00;99.90;;;;;;4992429;28;20019;-75
2021/11/05 07:02:54;;;;;;;59.05;36.17;;;6.10;99.90;;;;;;5008718;28;20048;-75
2021/11/05 07:05:19;;;;;;;62.33;36.90;;;6.00;99.90;;;;;;5001056;28;20026;-75
2021/11/05 07:07:45;;;;;;;51.25;35.25;;;6.00;99.90;;;;;;4992982;28;20100;-74
2021/11/05 07:10:12;;;;;;;53.33;36.72;;;6.10;99.90;;;;;;5003431;28;20109;-74
2021/11/05 07:12:39;;;;;;;52.70;34.83;;;6.00;99.90;;;;;;5005403;28;20022;-74
2021/11/05 07:15:06;;;;;;;55.55;36.67;;;6.10;99.90;;;;;;5004226;28;20058;-74
2021/11/05 07:17:32;;;;;;;54.35;36.00;;;6.10;99.90;;;;;;4993636;28;20475;-74
2021/11/05 07:19:58;;;;;;;52.97;35.33;;;6.00;99.90;;;;;;4991174;28;20054;-74
2021/11/05 07:22:26;;;;;;;50.85;34.97;;;6.10;99.90;;;;;;4996242;28;20654;-74
2021/11/05 07:24:52;;;;;;;47.90;32.40;;;6.10;99.90;;;;;;4999758;28;20420;-75
2021/11/05 07:27:18;;;;;;;45.42;32.17;;;6.10;99.90;;;;;;4991089;28;20023;-74
2021/11/05 07:29:43;;;;;;;54.90;36.65;;;6.10;99.90;;;;;;4980585;28;20031;-74
2021/11/05 07:32:09;;;;;;;62.25;39.15;;;6.10;99.90;;;;;;4990977;28;20093;-74
2021/11/05 07:34:37;;;;;;;52.38;36.58;;;6.10;99.90;;;;;;4991038;28;20034;-74
2021/11/05 07:37:08;;;;;;;56.03;36.60;;;6.10;99.90;;;;;;4991947;28;20121;-74
2021/11/05 07:39:34;;;;;;;53.17;35.47;;;6.10;99.90;;;;;;4979309;28;20062;-74
2021/11/05 07:41:59;;;;;;;60.22;37.40;;;6.10;99.90;;;;;;4979063;28;20038;-74
2021/11/05 07:44:25;;;;;;;45.65;33.38;;;6.20;99.90;;;;;;5004111;28;20069;-74
2021/11/05 07:46:51;;;;;;;43.63;31.85;;;6.20;99.90;;;;;;4997257;28;20109;-74
2021/11/05 07:49:16;;;;;;;48.13;34.28;;;6.30;99.90;;;;;;4997461;28;20038;-74
2021/11/05 07:51:42;;;;;;;50.30;35.53;;;6.30;99.90;;;;;;4991670;28;20026;-74
2021/11/05 07:54:08;;;;;;;62.00;39.90;;;6.30;99.90;;;;;;5003036;28;20022;-74
2021/11/05 07:56:37;;;;;;;71.22;50.08;;;6.30;99.90;;;;;;4991477;28;20113;-74
2021/11/05 07:59:04;;;;;;;68.60;49.42;;;6.30;99.90;;;;;;4977980;28;20062;-74
2021/11/05 08:01:30;;;;;;;118.18;78.60;;;6.40;99.90;;;;;;5004703;28;20034;-74
2021/11/05 08:03:55;;;;;;;110.80;75.70;;;6.30;99.90;;;;;;4997695;28;20026;-74
2021/11/05 08:06:21;;;;;;;143.93;101.22;;;6.30;99.90;;;;;;4991969;28;20030;-73
2021/11/05 08:08:46;;;;;;;126.88;86.00;;;6.30;99.90;;;;;;4993227;28;20473;-74
2021/11/05 08:11:12;;;;;;;74.00;52.92;;;6.20;99.90;;;;;;4994200;28;20026;-75
2021/11/05 08:13:39;;;;;;;59.67;41.70;;;6.30;99.90;;;;;;4992565;28;20044;-74
2021/11/05 08:16:05;;;;;;;51.25;35.72;;;6.30;99.90;;;;;;4991899;28;20029;-74
2021/11/05 08:18:31;;;;;;;60.13;39.35;;;6.30;99.90;;;;;;4991799;28;20101;-74
2021/11/05 08:20:56;;;;;;;56.00;36.00;;;6.30;99.90;;;;;;4991518;28;20476;-74
2021/11/05 08:23:22;;;;;;;56.80;39.17;;;6.30;99.90;;;;;;4993189;28;20030;-74
2021/11/05 08:25:48;;;;;;;55.58;38.33;;;6.40;99.90;;;;;;4995279;28;20022;-75
2021/11/05 08:28:16;;;;;;;62.15;43.25;;;6.40;99.90;;;;;;4995127;28;20384;-74
2021/11/05 08:30:42;;;;;;;66.28;43.72;;;6.50;99.90;;;;;;5006891;28;20450;-74
2021/11/05 08:33:07;;;;;;;46.45;34.83;;;6.50;99.90;;;;;;5007875;28;20026;-75
2021/11/05 08:35:34;;;;;;;52.53;35.40;;;6.50;99.90;;;;;;4998876;28;20476;-74
2021/11/05 08:38:00;;;;;;;44.90;33.83;;;6.50;99.90;;;;;;5008350;28;20034;-74
2021/11/05 08:40:26;;;;;;;61.53;40.28;;;6.50;99.90;;;;;;5002078;28;20033;-74
2021/11/05 08:42:52;;;;;;;54.63;36.75;;;6.60;99.90;;;;;;5000292;28;20034;-74
2021/11/05 08:45:18;;;;;;;50.83;35.95;;;6.50;99.90;;;;;;5006627;28;20164;-74
2021/11/05 08:47:44;;;;;;;51.35;35.33;;;6.50;99.90;;;;;;4995001;28;20030;-74
2021/11/05 08:50:20;;;;;;;46.25;34.83;;;6.40;99.90;;;;;;4993714;28;20034;-74
2021/11/05 08:52:46;;;;;;;56.45;38.95;;;6.50;99.90;;;;;;4993565;28;20037;-74
2021/11/05 08:55:13;;;;;;;50.78;36.85;;;6.50;99.90;;;;;;4993851;28;20027;-74
2021/11/05 08:57:39;;;;;;;50.63;35.63;;;6.50;99.90;;;;;;4993664;28;20081;-75
2021/11/05 09:00:21;;;;;;;46.63;33.88;;;6.50;99.90;;;;;;5003380;28;20034;-74
2021/11/05 09:02:47;;;;;;;45.92;32.95;;;6.50;99.90;;;;;;4997242;28;20026;-74
2021/11/05 09:05:14;;;;;;;45.58;33.22;;;6.50;99.90;;;;;;4994745;28;20038;-74
2021/11/05 09:07:39;;;;;;;45.95;32.50;;;6.50;99.90;;;;;;4994736;28;20034;-74
2021/11/05 09:10:07;;;;;;;41.28;30.00;;;6.50;99.90;;;;;;5003848;28;20383;-74
2021/11/05 09:12:33;;;;;;;42.45;30.70;;;6.50;99.90;;;;;;5012714;28;20028;-74
2021/11/05 09:14:59;;;;;;;43.40;31.20;;;6.50;99.90;;;;;;5003703;28;20122;-74
2021/11/05 09:17:25;;;;;;;38.70;29.17;;;6.60;99.90;;;;;;4981384;28;20080;-73
2021/11/05 09:19:51;;;;;;;41.20;30.10;;;6.60;99.90;;;;;;4994653;28;20408;-74
2021/11/05 09:22:17;;;;;;;43.20;31.42;;;6.60;99.90;;;;;;5007291;28;20049;-75
2021/11/05 09:24:43;;;;;;;41.90;29.92;;;6.60;99.90;;;;;;4994272;28;20378;-74
2021/11/05 09:27:10;;;;;;;37.70;29.70;;;6.50;99.90;;;;;;5006281;28;20053;-74
2021/11/05 09:29:35;;;;;;;39.08;29.60;;;6.50;99.90;;;;;;4993135;28;20046;-74
2021/11/05 09:32:01;;;;;;;43.95;30.83;;;6.50;99.90;;;;;;4983798;28;20021;-74
2021/11/05 09:34:31;;;;;;;41.60;30.85;;;6.50;99.90;;;;;;5002625;28;20109;-74
2021/11/05 09:37:01;;;;;;;41.20;30.33;;;6.60;99.90;;;;;;4979960;28;20040;-75
2021/11/05 09:39:28;;;;;;;44.08;31.48;;;6.50;99.90;;;;;;4994097;28;20022;-74
2021/11/05 09:41:53;;;;;;;43.88;32.65;;;6.60;99.90;;;;;;4994142;28;20026;-73
2021/11/05 09:44:19;;;;;;;40.72;29.90;;;6.60;99.90;;;;;;4993960;28;20535;-74
2021/11/05 09:46:45;;;;;;;40.83;29.65;;;6.70;99.90;;;;;;4992667;28;20022;-73
2021/11/05 09:49:11;;;;;;;44.28;31.48;;;6.70;99.90;;;;;;5006057;28;20041;-74
2021/11/05 09:51:37;;;;;;;35.33;27.75;;;6.90;99.90;;;;;;4994470;28;20030;-74
2021/11/05 09:54:03;;;;;;;37.85;29.45;;;6.80;99.90;;;;;;4994072;28;20030;-74
2021/11/05 09:56:29;;;;;;;36.90;29.08;;;6.80;99.90;;;;;;4993979;28;20037;-75
2021/11/05 09:58:55;;;;;;;34.63;27.48;;;6.70;99.90;;;;;;4993567;28;20399;-74
2021/11/05 10:01:21;;;;;;;38.40;28.48;;;6.80;99.90;;;;;;4998070;28;20037;-74
2021/11/05 10:03:46;;;;;;;37.08;27.90;;;6.80;99.90;;;;;;5001139;28;20369;-74
2021/11/05 10:06:13;;;;;;;37.47;27.75;;;7.00;99.90;;;;;;4980570;28;20045;-73
2021/11/05 10:08:39;;;;;;;36.88;28.65;;;7.00;99.90;;;;;;4993454;28;20023;-74
2021/11/05 10:11:24;;;;;;;36.92;28.15;;;7.10;99.90;;;;;;4999199;28;20364;-74
2021/11/05 10:13:51;;;;;;;44.53;30.85;;;7.20;99.90;;;;;;4997513;28;20027;-70
2021/11/05 10:16:19;;;;;;;35.58;27.33;;;7.20;99.90;;;;;;4994299;28;20034;-74
2021/11/05 10:19:06;;;;;;;39.28;28.58;;;7.10;99.90;;;;;;4990974;28;20033;-74
2021/11/05 10:21:40;;;;;;;39.25;28.67;;;7.10;99.90;;;;;;4996961;28;20094;-74
2021/11/05 10:24:18;;;;;;;37.38;28.73;;;7.00;99.90;;;;;;4997419;28;20034;-74
2021/11/05 10:26:44;;;;;;;37.15;27.60;;;7.00;99.90;;;;;;5003498;28;20105;-73
2021/11/05 10:29:25;;;;;;;38.85;28.35;;;7.10;99.90;;;;;;5001108;28;20022;-74
2021/11/05 10:32:04;;;;;;;36.70;26.95;;;7.10;99.90;;;;;;4990477;28;20511;-74
2021/11/05 10:34:53;;;;;;;36.33;28.02;;;7.00;99.90;;;;;;4998090;28;20030;-74
2021/11/05 10:37:29;;;;;;;36.20;28.08;;;7.00;99.90;;;;;;4988599;28;20026;-73
2021/11/05 10:39:56;;;;;;;34.55;26.50;;;7.20;99.90;;;;;;4995153;28;20026;-73
2021/11/05 10:42:33;;;;;;;39.70;29.58;;;7.10;99.90;;;;;;4983137;28;20106;-73
2021/11/05 10:45:21;;;;;;;38.88;28.55;;;7.20;99.90;;;;;;4989842;28;20027;-73
2021/11/05 10:47:53;;;;;;;37.92;26.83;;;7.30;99.90;;;;;;4994029;28;20094;-73
2021/11/05 10:50:20;;;;;;;36.72;27.60;;;7.10;99.90;;;;;;5007378;28;20113;-74
2021/11/05 10:53:08;;;;;;;37.80;29.15;;;7.10;99.90;;;;;;4997509;28;20022;-73
2021/11/05 10:55:38;;;;;;;39.47;29.05;;;7.20;99.90;;;;;;4999311;28;20026;-74
2021/11/05 10:58:04;;;;;;;32.88;25.77;;;7.10;99.90;;;;;;4992657;28;20022;-74
2021/11/05 11:00:30;;;;;;;42.20;29.65;;;7.20;99.90;;;;;;4980467;28;20050;-74
2021/11/05 11:03:15;;;;;;;41.35;30.48;;;7.20;99.90;;;;;;5010603;28;20029;-73
2021/11/05 11:05:43;;;;;;;41.70;30.65;;;7.40;99.90;;;;;;4998708;28;20035;-74
2021/11/05 11:08:26;;;;;;;39.33;29.10;;;7.40;99.90;;;;;;5003554;28;20022;-73
2021/11/05 11:10:55;;;;;;;39.13;27.25;;;7.40;99.90;;;;;;4992058;28;20053;-74
2021/11/05 11:13:39;;;;;;;37.88;27.17;;;7.40;99.90;;;;;;4993159;28;20022;-74
2021/11/05 11:16:08;;;;;;;36.38;27.73;;;7.40;99.90;;;;;;4987242;28;20488;-74
2021/11/05 11:18:46;;;;;;;36.03;28.17;;;7.40;99.90;;;;;;5011042;28;20014;-74
2021/11/05 11:21:12;;;;;;;34.55;25.80;;;7.40;99.90;;;;;;4990793;28;20133;-74
2021/11/05 11:23:39;;;;;;;30.15;24.10;;;7.40;99.90;;;;;;4995030;28;20104;-73
2021/11/05 11:26:06;;;;;;;32.97;24.50;;;7.40;99.90;;;;;;5001203;28;20029;-74
2021/11/05 11:28:31;;;;;;;32.35;25.00;;;7.50;99.90;;;;;;4995318;28;20025;-74
2021/11/05 11:30:57;;;;;;;36.45;26.67;;;7.60;99.90;;;;;;5006939;28;20026;-74
2021/11/05 11:33:23;;;;;;;32.45;25.20;;;7.80;99.90;;;;;;5008522;28;20025;-73
2021/11/05 11:35:49;;;;;;;38.70;28.08;;;7.80;99.90;;;;;;4992195;28;20023;-73
2021/11/05 11:38:17;;;;;;;35.42;25.98;;;7.90;99.90;;;;;;4990941;28;20612;-73
2021/11/05 11:40:46;;;;;;;31.45;23.77;;;7.90;99.90;;;;;;4991935;28;20023;-73
2021/11/05 11:43:13;;;;;;;32.63;23.80;;;8.00;99.90;;;;;;4992140;28;20074;-73
2021/11/05 11:45:47;;;;;;;35.03;26.02;;;8.00;99.90;;;;;;4991984;28;20028;-73
2021/11/05 11:48:37;;;;;;;31.35;22.58;;;7.90;99.90;;;;;;4994777;28;20507;-74
2021/11/05 11:51:34;;;;;;;31.60;23.85;;;8.00;99.90;;;;;;4994373;28;20044;-73
2021/11/05 11:54:11;;;;;;;28.58;22.05;;;8.00;99.90;;;;;;4986938;28;20034;-73
2021/11/05 11:56:39;;;;;;;30.38;22.70;;;8.00;99.90;;;;;;4992263;28;20041;-73
2021/11/05 11:59:09;;;;;;;28.52;22.67;;;8.10;99.90;;;;;;5003398;28;20031;-74
2021/11/05 12:01:39;;;;;;;29.80;23.92;;;8.20;99.90;;;;;;4995730;28;20073;-73
2021/11/05 12:04:09;;;;;;;29.75;22.38;;;8.30;99.90;;;;;;5002069;28;20026;-73
2021/11/05 12:06:50;;;;;;;34.33;25.30;;;8.40;99.90;;;;;;4994862;28;20109;-73
2021/11/05 12:09:36;;;;;;;31.98;23.70;;;8.40;99.90;;;;;;4998549;28;20511;-73
2021/11/05 12:12:20;;;;;;;28.55;21.88;;;8.30;99.90;;;;;;5014000;28;20032;-74
2021/11/05 12:15:12;;;;;;;33.53;24.73;;;8.30;99.90;;;;;;5015389;28;20030;-74
2021/11/05 12:17:49;;;;;;;32.72;23.70;;;8.30;99.90;;;;;;5006704;28;20121;-73
2021/11/05 12:20:34;;;;;;;30.20;21.83;;;8.40;99.90;;;;;;4994962;28;20089;-73
2021/11/05 12:23:12;;;;;;;28.08;22.77;;;8.30;99.90;;;;;;5004206;28;20030;-74
2021/11/05 12:26:04;;;;;;;29.40;22.23;;;8.30;99.90;;;;;;4995021;28;20076;-73
2021/11/05 12:28:41;;;;;;;29.02;21.27;;;8.30;99.90;;;;;;4992593;28;20088;-73
2021/11/05 12:31:29;;;;;;;28.38;22.15;;;8.20;99.90;;;;;;4994007;28;20019;-74
2021/11/05 12:34:18;;;;;;;31.98;23.63;;;8.30;99.90;;;;;;4993886;28;20023;-73
2021/11/05 12:36:52;;;;;;;34.38;25.30;;;8.30;99.90;;;;;;4989186;28;20038;-73
2021/11/05 12:39:36;;;;;;;32.85;22.88;;;8.20;99.90;;;;;;4995174;28;20182;-73